Terminal Aerodrome Forecast
Issued by NWS

Home | Current Version | Previous Version | Text Only | Print | Product List | Glossary On
Versions: 1 2 3 4 5 6 7 8 9 10 11 12 13 14 15 16 17
000
FTUS45 KTFX 272300
TAFHLN
TAF
KHLN 272329Z 2800/2824 34014KT P6SM VCSH SCT040 BKN060
      TEMPO 2801/2804 3SM -SN BR BKN020
     FM280400 30010KT 6SM -SHSN BR SCT010 BKN025
     FM281100 VRB05KT P6SM VCSH SCT020 BKN040
     FM281700 VRB05KT P6SM BKN070=

USA.gov is the U.S. government's official web portal to all federal, state and local government web resources and services.